Time;durP1;ratioP1;P1;durP2;ratioP2;P2;SDS_P1;SDS_P2;PMS_P1;PMS_P2;Temp;Humidity;BMP_temperature;BMP_pressure;BME280_temperature;BME280_humidity;BME280_pressure;Samples;Min_cycle;Max_cycle;Signal;HPM_P1;HPM_P2
2022/07/17 00:01:53;;;;;;;0.20;0.20;;;13.60;99.90;;;;;;5065714;28;20033;-80
2022/07/17 00:04:18;;;;;;;0.20;0.20;;;13.60;99.90;;;;;;5080001;28;20098;-80
2022/07/17 00:06:44;;;;;;;0.20;0.20;;;13.60;99.90;;;;;;5068376;28;20048;-80
2022/07/17 00:09:10;;;;;;;0.20;0.20;;;13.60;99.90;;;;;;5066345;28;20044;-81
2022/07/17 00:11:36;;;;;;;0.20;0.20;;;13.60;99.90;;;;;;5063088;28;20072;-80
2022/07/17 00:14:01;;;;;;;0.20;0.20;;;13.60;99.90;;;;;;5070505;28;20528;-81
2022/07/17 00:16:27;;;;;;;0.20;0.20;;;13.50;99.90;;;;;;5069488;28;20466;-81
2022/07/17 00:18:53;;;;;;;0.20;0.20;;;13.50;99.90;;;;;;5075147;28;20105;-81
2022/07/17 00:21:18;;;;;;;0.20;0.20;;;13.40;99.90;;;;;;5083070;28;20091;-81
2022/07/17 00:23:44;;;;;;;0.20;0.20;;;13.50;99.90;;;;;;5065083;28;20070;-82
2022/07/17 00:26:11;;;;;;;0.20;0.20;;;13.50;99.90;;;;;;5054639;28;20048;-81
2022/07/17 00:28:39;;;;;;;0.20;0.20;;;13.40;99.90;;;;;;5071304;28;20094;-81
2022/07/17 00:31:06;;;;;;;0.20;0.20;;;13.50;99.90;;;;;;5069765;28;20213;-81
2022/07/17 00:33:32;;;;;;;0.20;0.20;;;13.40;99.90;;;;;;5066464;28;20089;-82
2022/07/17 00:35:57;;;;;;;0.20;0.20;;;13.40;99.90;;;;;;5087663;28;20393;-81
2022/07/17 00:38:23;;;;;;;0.20;0.20;;;13.40;99.90;;;;;;5064699;28;20033;-82
2022/07/17 00:40:49;;;;;;;0.20;0.20;;;13.40;99.90;;;;;;5057759;28;20089;-82
2022/07/17 00:43:14;;;;;;;0.20;0.20;;;13.30;99.90;;;;;;5058643;28;20133;-81
2022/07/17 00:45:40;;;;;;;0.20;0.20;;;13.40;99.90;;;;;;5061022;28;20089;-80
2022/07/17 00:48:10;;;;;;;0.20;0.20;;;13.30;99.90;;;;;;5062647;28;20407;-80
2022/07/17 00:50:38;;;;;;;0.20;0.20;;;13.30;99.90;;;;;;5059881;28;20048;-80
2022/07/17 00:53:05;;;;;;;0.20;0.20;;;13.30;99.90;;;;;;5066145;28;20040;-80
2022/07/17 00:55:31;;;;;;;0.20;0.20;;;14.00;99.90;;;;;;5067002;28;20056;-80
2022/07/17 00:58:01;;;;;;;0.20;0.20;;;13.50;99.90;;;;;;5073267;28;20543;-80
2022/07/17 01:00:26;;;;;;;0.20;0.20;;;13.30;99.90;;;;;;5065397;28;20052;-80
2022/07/17 01:02:53;;;;;;;0.20;0.20;;;13.30;99.90;;;;;;5062762;28;20036;-80
2022/07/17 01:05:20;;;;;;;0.20;0.20;;;13.40;99.90;;;;;;5055536;28;20064;-80
2022/07/17 01:07:47;;;;;;;0.20;0.20;;;13.20;99.90;;;;;;5059955;28;20107;-80
2022/07/17 01:10:16;;;;;;;0.20;0.20;;;13.20;99.90;;;;;;5071985;28;20409;-80
2022/07/17 01:12:42;;;;;;;0.20;0.20;;;13.20;99.90;;;;;;5054510;28;20063;-81
2022/07/17 01:15:09;;;;;;;0.20;0.20;;;13.20;99.90;;;;;;5065315;28;20464;-80
2022/07/17 01:17:35;;;;;;;0.10;0.10;;;13.20;99.90;;;;;;5072515;28;20047;-80
2022/07/17 01:20:03;;;;;;;0.20;0.20;;;13.20;99.90;;;;;;5072299;28;20116;-81
2022/07/17 01:22:29;;;;;;;0.10;0.10;;;13.20;99.90;;;;;;5068868;28;20055;-81
2022/07/17 01:24:54;;;;;;;0.10;0.10;;;13.10;99.90;;;;;;5082360;28;20043;-82
2022/07/17 01:27:20;;;;;;;0.20;0.20;;;13.20;99.90;;;;;;5067904;28;20041;-82
2022/07/17 01:29:45;;;;;;;0.20;0.20;;;13.10;99.90;;;;;;5082391;28;20342;-82
2022/07/17 01:32:11;;;;;;;0.20;0.20;;;13.10;99.90;;;;;;5072772;28;20120;-82
2022/07/17 01:34:37;;;;;;;0.20;0.20;;;13.10;99.90;;;;;;5072253;28;20549;-82
2022/07/17 01:37:03;;;;;;;0.20;0.20;;;13.10;99.90;;;;;;5074689;28;20052;-82
2022/07/17 01:42:13;;;;;;;0.13;0.13;;;13.10;99.90;;;;;;5075927;28;20048;-81
2022/07/17 01:44:38;;;;;;;0.20;0.20;;;13.10;99.90;;;;;;5065443;28;20052;-82
2022/07/17 01:47:04;;;;;;;0.10;0.10;;;13.10;99.90;;;;;;5065802;28;20039;-82
2022/07/17 01:49:30;;;;;;;0.20;0.20;;;13.20;99.90;;;;;;5071811;28;20045;-82
2022/07/17 01:51:59;;;;;;;0.20;0.20;;;13.00;99.90;;;;;;5062273;28;20047;-81
2022/07/17 01:54:29;;;;;;;0.20;0.20;;;13.00;99.90;;;;;;5074988;28;20123;-82
2022/07/17 01:56:54;;;;;;;0.20;0.20;;;13.00;99.90;;;;;;5058827;28;20182;-82
2022/07/17 01:59:20;;;;;;;0.20;0.20;;;13.00;99.90;;;;;;5067399;28;20097;-82
2022/07/17 02:01:46;;;;;;;0.20;0.20;;;13.00;99.90;;;;;;5062688;28;20041;-82
2022/07/17 02:04:12;;;;;;;0.20;0.20;;;13.00;99.90;;;;;;5067506;28;20127;-82
2022/07/17 02:06:37;;;;;;;0.20;0.20;;;13.00;99.90;;;;;;5063791;28;20041;-82
2022/07/17 02:09:03;;;;;;;0.20;0.20;;;13.00;99.90;;;;;;5062356;28;20036;-81
2022/07/17 02:11:29;;;;;;;0.10;0.10;;;13.00;99.90;;;;;;5060226;28;20064;-81
2022/07/17 02:13:57;;;;;;;0.20;0.20;;;12.90;99.90;;;;;;5059456;28;20048;-82
2022/07/17 02:16:23;;;;;;;0.20;0.20;;;12.90;99.90;;;;;;5068452;28;20052;-82
2022/07/17 02:18:48;;;;;;;0.20;0.20;;;12.80;99.90;;;;;;5070562;28;20028;-81
2022/07/17 02:21:14;;;;;;;0.20;0.20;;;12.90;99.90;;;;;;5073852;28;20495;-82
2022/07/17 02:23:39;;;;;;;0.20;0.20;;;12.80;99.90;;;;;;5055552;28;20044;-82
2022/07/17 02:26:05;;;;;;;0.20;0.20;;;12.80;99.90;;;;;;5070948;28;20122;-82
2022/07/17 02:28:34;;;;;;;0.20;0.20;;;12.80;99.90;;;;;;5066890;28;20357;-82
2022/07/17 02:30:59;;;;;;;0.20;0.20;;;12.80;99.90;;;;;;5053722;28;20047;-82
2022/07/17 02:33:25;;;;;;;0.20;0.20;;;12.80;99.90;;;;;;5054501;28;21436;-82
2022/07/17 02:35:50;;;;;;;0.20;0.20;;;12.80;99.90;;;;;;5069775;28;20036;-82
2022/07/17 02:38:16;;;;;;;0.20;0.20;;;12.80;99.90;;;;;;5067439;28;20052;-82
2022/07/17 02:40:42;;;;;;;0.20;0.20;;;12.80;99.90;;;;;;5064816;28;20040;-82
2022/07/17 02:43:07;;;;;;;0.13;0.13;;;12.80;99.90;;;;;;5079255;28;20076;-82
2022/07/17 02:45:33;;;;;;;0.20;0.20;;;12.70;99.90;;;;;;5070752;28;20403;-81
2022/07/17 02:47:59;;;;;;;0.20;0.20;;;12.80;99.90;;;;;;5061675;28;20044;-82
2022/07/17 02:50:25;;;;;;;0.20;0.20;;;12.70;99.90;;;;;;5069365;28;20119;-83
2022/07/17 02:52:51;;;;;;;0.20;0.20;;;12.70;99.90;;;;;;5069961;28;20546;-80
2022/07/17 02:55:17;;;;;;;0.20;0.20;;;12.70;99.90;;;;;;5062839;28;20053;-80
2022/07/17 02:57:46;;;;;;;0.20;0.20;;;12.70;99.90;;;;;;5062677;28;20407;-80
2022/07/17 03:00:15;;;;;;;0.15;0.15;;;12.70;99.90;;;;;;5071051;28;20259;-81
2022/07/17 03:02:45;;;;;;;0.20;0.20;;;12.60;99.90;;;;;;5056194;28;20411;-81
2022/07/17 03:05:11;;;;;;;0.20;0.20;;;12.60;99.90;;;;;;5064125;28;20433;-81
2022/07/17 03:07:37;;;;;;;0.20;0.20;;;12.60;99.90;;;;;;5062344;28;20040;-80
2022/07/17 03:10:03;;;;;;;0.17;0.17;;;12.60;99.90;;;;;;5075695;28;20040;-80
2022/07/17 03:12:29;;;;;;;0.20;0.20;;;12.70;99.90;;;;;;5061866;28;20047;-81
2022/07/17 03:15:01;;;;;;;0.20;0.20;;;12.50;99.90;;;;;;5059272;28;20451;-81
2022/07/17 03:17:26;;;;;;;0.10;0.10;;;12.70;99.90;;;;;;5062057;28;20044;-81
2022/07/17 03:19:52;;;;;;;0.15;0.15;;;12.60;99.90;;;;;;5061995;28;20043;-80
2022/07/17 03:22:18;;;;;;;0.20;0.20;;;12.50;99.90;;;;;;5077410;28;20391;-81
2022/07/17 03:24:43;;;;;;;0.20;0.20;;;12.50;99.90;;;;;;5058015;28;20542;-81
2022/07/17 03:27:12;;;;;;;0.20;0.20;;;12.40;99.90;;;;;;5064062;28;20119;-81
2022/07/17 03:29:37;;;;;;;0.20;0.20;;;12.40;99.90;;;;;;5067144;28;20048;-81
2022/07/17 03:32:04;;;;;;;0.20;0.20;;;12.40;99.90;;;;;;5052739;28;20124;-80
2022/07/17 03:34:29;;;;;;;0.20;0.20;;;12.40;99.90;;;;;;5065339;28;20044;-81
2022/07/17 03:36:55;;;;;;;0.20;0.20;;;12.40;99.90;;;;;;5064025;28;20403;-81
2022/07/17 03:39:20;;;;;;;0.20;0.20;;;12.50;99.90;;;;;;5061008;28;20072;-81
2022/07/17 03:41:46;;;;;;;0.20;0.20;;;12.40;99.90;;;;;;5064229;28;20127;-81
2022/07/17 03:44:12;;;;;;;0.20;0.20;;;12.50;99.90;;;;;;5071186;28;20101;-81
2022/07/17 03:46:37;;;;;;;0.20;0.20;;;12.50;99.90;;;;;;5066778;28;20086;-82
2022/07/17 03:49:03;;;;;;;0.20;0.20;;;12.50;99.90;;;;;;5055152;28;20045;-81
2022/07/17 03:51:29;;;;;;;0.15;0.15;;;12.50;99.90;;;;;;5065846;28;20052;-80
2022/07/17 03:53:54;;;;;;;0.20;0.20;;;12.50;99.90;;;;;;5061006;28;20037;-80
2022/07/17 03:56:20;;;;;;;0.20;0.20;;;12.50;99.90;;;;;;5068411;28;20102;-81
2022/07/17 03:58:46;;;;;;;0.20;0.20;;;12.60;99.90;;;;;;5076531;28;20571;-81
2022/07/17 04:01:12;;;;;;;0.20;0.20;;;12.60;99.90;;;;;;5051199;28;20045;-81
2022/07/17 04:03:37;;;;;;;0.20;0.20;;;12.60;99.90;;;;;;5075016;28;20672;-82
2022/07/17 04:06:03;;;;;;;0.10;0.10;;;12.70;99.90;;;;;;5073714;28;20076;-81
2022/07/17 04:08:29;;;;;;;0.20;0.20;;;12.80;99.90;;;;;;5074021;28;20043;-81
2022/07/17 04:10:55;;;;;;;0.20;0.20;;;12.80;99.90;;;;;;5066349;28;20136;-82
2022/07/17 04:13:21;;;;;;;0.20;0.20;;;12.90;99.90;;;;;;5067414;28;20463;-81
2022/07/17 04:15:49;;;;;;;0.20;0.20;;;12.80;99.90;;;;;;5077571;28;20048;-81
2022/07/17 04:18:20;;;;;;;0.20;0.20;;;12.80;99.90;;;;;;5088409;28;20045;-81
2022/07/17 04:20:47;;;;;;;0.10;0.10;;;12.80;99.90;;;;;;5074506;28;20490;-81
2022/07/17 04:23:13;;;;;;;0.20;0.20;;;12.90;99.90;;;;;;5054927;28;20040;-82
2022/07/17 04:25:40;;;;;;;0.20;0.20;;;13.00;99.90;;;;;;5087046;28;20047;-81
2022/07/17 04:28:08;;;;;;;0.20;0.20;;;12.90;99.90;;;;;;5073467;28;20044;-81
2022/07/17 04:30:34;;;;;;;0.17;0.17;;;12.90;99.90;;;;;;5081304;28;20075;-81
2022/07/17 04:33:00;;;;;;;0.20;0.20;;;13.50;99.90;;;;;;5067494;28;20057;-81
2022/07/17 04:35:25;;;;;;;0.20;0.20;;;13.00;99.90;;;;;;5067071;28;20048;-81
2022/07/17 04:37:53;;;;;;;0.20;0.20;;;13.10;99.90;;;;;;5068692;28;20471;-81
2022/07/17 04:40:19;;;;;;;0.20;0.20;;;13.10;99.90;;;;;;5060844;28;20465;-82
2022/07/17 04:42:45;;;;;;;0.20;0.20;;;13.10;99.90;;;;;;5072227;28;20051;-81
2022/07/17 04:45:11;;;;;;;0.20;0.20;;;13.10;99.90;;;;;;5073125;28;20049;-80
2022/07/17 04:47:36;;;;;;;0.20;0.20;;;13.10;99.90;;;;;;5067094;28;20047;-82
2022/07/17 04:50:03;;;;;;;0.20;0.20;;;13.20;99.90;;;;;;5075721;28;20479;-82
2022/07/17 04:52:28;;;;;;;0.17;0.17;;;13.20;99.90;;;;;;5073675;28;20395;-81
2022/07/17 04:54:54;;;;;;;0.20;0.20;;;13.20;99.90;;;;;;5072421;28;20063;-82
2022/07/17 04:57:22;;;;;;;0.20;0.20;;;13.20;99.90;;;;;;5074586;28;20079;-82
2022/07/17 04:59:48;;;;;;;0.15;0.15;;;13.20;99.90;;;;;;5075350;28;20499;-82
2022/07/17 05:02:14;;;;;;;0.20;0.20;;;13.30;99.90;;;;;;5055242;28;20154;-80
2022/07/17 05:04:39;;;;;;;0.10;0.10;;;13.30;99.90;;;;;;5073136;28;20035;-81
2022/07/17 05:07:05;;;;;;;0.20;0.20;;;13.30;99.90;;;;;;5085418;28;20046;-81
2022/07/17 05:09:30;;;;;;;0.20;0.20;;;13.30;99.90;;;;;;5058543;28;20400;-82
2022/07/17 05:11:56;;;;;;;0.20;0.20;;;13.30;99.90;;;;;;5053838;28;20047;-82
2022/07/17 05:14:28;;;;;;;0.20;0.20;;;13.40;99.90;;;;;;5069677;28;20092;-82
2022/07/17 05:16:53;;;;;;;0.20;0.20;;;13.40;99.90;;;;;;5085728;28;20041;-81
2022/07/17 05:19:19;;;;;;;0.20;0.20;;;13.50;99.90;;;;;;5063634;28;20044;-83
2022/07/17 05:21:45;;;;;;;0.20;0.20;;;13.60;99.90;;;;;;5075095;28;20444;-82
2022/07/17 05:24:10;;;;;;;0.20;0.20;;;13.60;99.90;;;;;;5063989;28;20041;-81
2022/07/17 05:26:36;;;;;;;0.20;0.20;;;13.60;99.90;;;;;;5070100;28;20502;-80
2022/07/17 05:29:02;;;;;;;0.20;0.20;;;13.60;99.90;;;;;;5065650;28;20414;-81
2022/07/17 05:31:27;;;;;;;0.20;0.20;;;13.70;99.90;;;;;;5074456;28;20484;-81
2022/07/17 05:33:53;;;;;;;0.20;0.20;;;13.70;99.90;;;;;;5068042;28;20539;-81
2022/07/17 05:36:19;;;;;;;0.20;0.20;;;14.10;99.90;;;;;;5079522;28;20462;-81
2022/07/17 05:38:44;;;;;;;0.17;0.17;;;13.80;99.90;;;;;;5064166;28;20443;-81
2022/07/17 05:41:10;;;;;;;0.10;0.10;;;13.90;99.90;;;;;;5055040;28;20127;-82
2022/07/17 05:43:35;;;;;;;0.20;0.20;;;13.90;99.90;;;;;;5066850;28;20072;-81
2022/07/17 05:46:01;;;;;;;0.20;0.20;;;14.00;99.90;;;;;;5067475;28;20043;-82
2022/07/17 05:48:29;;;;;;;0.13;0.13;;;14.00;99.90;;;;;;5080565;28;20120;-81
2022/07/17 05:50:55;;;;;;;0.20;0.20;;;14.10;99.90;;;;;;5069856;28;20040;-82
2022/07/17 05:53:20;;;;;;;0.20;0.20;;;14.20;99.90;;;;;;5061111;28;20048;-80
2022/07/17 05:55:46;;;;;;;0.20;0.20;;;14.20;99.90;;;;;;5056114;28;20116;-81
2022/07/17 05:58:18;;;;;;;0.20;0.20;;;14.40;99.90;;;;;;5081188;28;20071;-81
2022/07/17 06:00:45;;;;;;;0.20;0.20;;;14.50;99.90;;;;;;5059624;28;20044;-81
2022/07/17 06:03:10;;;;;;;0.20;0.20;;;14.50;99.90;;;;;;5071893;28;20075;-81
2022/07/17 06:05:39;;;;;;;0.20;0.20;;;14.60;99.90;;;;;;5063174;28;20048;-82
2022/07/17 06:08:04;;;;;;;0.20;0.20;;;14.60;99.90;;;;;;5073007;28;20055;-81
2022/07/17 06:10:30;;;;;;;0.10;0.10;;;14.70;99.90;;;;;;5066127;28;20049;-80
2022/07/17 06:12:56;;;;;;;0.20;0.20;;;14.80;99.90;;;;;;5063822;28;20044;-83
2022/07/17 06:15:23;;;;;;;0.20;0.20;;;14.80;99.90;;;;;;5072248;28;20044;-80
2022/07/17 06:17:49;;;;;;;0.20;0.20;;;14.90;99.90;;;;;;5081914;28;20118;-81
2022/07/17 06:20:16;;;;;;;0.20;0.20;;;15.10;99.90;;;;;;5072893;28;20105;-82
2022/07/17 06:22:42;;;;;;;0.20;0.20;;;15.00;99.90;;;;;;5072861;28;20452;-81
2022/07/17 06:25:09;;;;;;;0.20;0.20;;;15.00;99.90;;;;;;5061549;28;20045;-81
2022/07/17 06:27:35;;;;;;;0.20;0.20;;;15.10;99.90;;;;;;5079264;28;20167;-83
2022/07/17 06:30:01;;;;;;;0.20;0.20;;;15.20;99.90;;;;;;5075284;28;20098;-82
2022/07/17 06:32:30;;;;;;;0.20;0.20;;;15.20;99.90;;;;;;5068168;28;20036;-81
2022/07/17 06:34:55;;;;;;;0.20;0.20;;;15.30;99.90;;;;;;5083512;28;20044;-81
2022/07/17 06:37:21;;;;;;;0.20;0.20;;;15.40;99.90;;;;;;5066848;28;20123;-81
2022/07/17 06:39:47;;;;;;;0.13;0.13;;;15.40;99.90;;;;;;5061883;28;20040;-81
2022/07/17 06:42:12;;;;;;;0.20;0.20;;;15.40;99.90;;;;;;5059337;28;20076;-81
2022/07/17 06:44:38;;;;;;;0.20;0.20;;;15.50;99.90;;;;;;5061386;28;20466;-82
2022/07/17 06:47:04;;;;;;;0.20;0.20;;;15.60;99.90;;;;;;5070262;28;20044;-80
2022/07/17 06:49:32;;;;;;;0.20;0.20;;;15.60;99.90;;;;;;5069271;28;20041;-81
2022/07/17 06:51:58;;;;;;;0.20;0.20;;;15.60;99.90;;;;;;5048697;28;20045;-82
2022/07/17 06:54:25;;;;;;;0.20;0.20;;;15.50;99.90;;;;;;5074972;28;20529;-79
2022/07/17 06:56:52;;;;;;;0.20;0.20;;;15.60;99.90;;;;;;5056619;28;20045;-81
2022/07/17 06:59:21;;;;;;;0.20;0.20;;;15.70;99.90;;;;;;5062361;28;20128;-82
2022/07/17 07:01:47;;;;;;;0.20;0.20;;;15.80;99.90;;;;;;5058169;28;20037;-82
2022/07/17 07:04:13;;;;;;;0.20;0.20;;;15.80;99.90;;;;;;5055752;28;20531;-81
2022/07/17 07:06:39;;;;;;;0.20;0.20;;;15.90;99.90;;;;;;5061757;28;20072;-81
2022/07/17 07:09:05;;;;;;;0.20;0.20;;;15.80;99.90;;;;;;5063232;28;20076;-82
2022/07/17 07:11:30;;;;;;;0.20;0.20;;;15.80;99.90;;;;;;5065522;28;20040;-81
2022/07/17 07:13:56;;;;;;;0.20;0.20;;;15.90;99.90;;;;;;5055236;28;20041;-81
2022/07/17 07:16:22;;;;;;;0.20;0.20;;;15.90;99.90;;;;;;5067219;28;20182;-80
2022/07/17 07:18:48;;;;;;;0.20;0.20;;;16.00;99.90;;;;;;5082825;28;20048;-82
2022/07/17 07:21:13;;;;;;;0.20;0.20;;;16.10;99.90;;;;;;5079968;28;20125;-82
2022/07/17 07:23:39;;;;;;;0.20;0.20;;;16.20;99.90;;;;;;5073953;28;20344;-81
2022/07/17 07:26:05;;;;;;;0.28;0.28;;;16.20;99.90;;;;;;5050265;28;20386;-81
2022/07/17 07:28:30;;;;;;;0.20;0.20;;;16.20;99.90;;;;;;5075827;28;20040;-82
2022/07/17 07:30:56;;;;;;;0.25;0.25;;;16.30;99.90;;;;;;5056407;28;20123;-82
2022/07/17 07:33:22;;;;;;;0.20;0.20;;;16.40;99.90;;;;;;5075334;28;20090;-82
2022/07/17 07:35:47;;;;;;;0.20;0.20;;;16.40;99.90;;;;;;5078952;28;20040;-82
2022/07/17 07:38:13;;;;;;;0.20;0.20;;;16.50;99.90;;;;;;5064975;28;20144;-82
2022/07/17 07:40:39;;;;;;;0.20;0.20;;;16.50;99.90;;;;;;5061065;28;20663;-82
2022/07/17 07:43:04;;;;;;;0.20;0.20;;;16.60;99.90;;;;;;5063595;28;20443;-81
2022/07/17 07:45:31;;;;;;;0.20;0.20;;;16.70;99.90;;;;;;5070213;28;20089;-81
2022/07/17 07:47:59;;;;;;;0.20;0.20;;;16.70;99.90;;;;;;5088250;28;20303;-82
2022/07/17 07:50:26;;;;;;;0.20;0.20;;;16.70;99.90;;;;;;5092860;28;20040;-82
2022/07/17 07:52:52;;;;;;;0.20;0.20;;;16.70;99.90;;;;;;5091178;28;20040;-82
2022/07/17 07:55:18;;;;;;;0.20;0.20;;;16.90;99.90;;;;;;5063968;28;20403;-82
2022/07/17 07:57:46;;;;;;;0.20;0.20;;;16.90;99.90;;;;;;5070165;28;20055;-82
2022/07/17 08:00:13;;;;;;;0.20;0.20;;;16.90;99.90;;;;;;5064802;28;20037;-82
2022/07/17 08:02:39;;;;;;;0.20;0.20;;;17.00;99.90;;;;;;5052223;28;20112;-82
2022/07/17 08:05:08;;;;;;;0.20;0.20;;;17.00;99.90;;;;;;5087194;28;20173;-82
2022/07/17 08:07:37;;;;;;;0.20;0.20;;;17.10;99.90;;;;;;5101951;28;20044;-82
2022/07/17 08:10:12;;;;;;;0.20;0.20;;;17.10;99.90;;;;;;5080608;28;20506;-82
2022/07/17 08:12:37;;;;;;;0.20;0.20;;;17.10;99.90;;;;;;5089950;28;20064;-82
2022/07/17 08:15:07;;;;;;;0.20;0.20;;;17.20;99.90;;;;;;5064520;28;20068;-83
2022/07/17 08:17:36;;;;;;;0.20;0.20;;;17.20;99.90;;;;;;5053064;28;20052;-82
2022/07/17 08:20:02;;;;;;;0.20;0.20;;;17.20;99.90;;;;;;5065982;28;20040;-83
2022/07/17 08:22:27;;;;;;;0.10;0.10;;;17.30;99.90;;;;;;5053403;28;20104;-83
2022/07/17 08:24:53;;;;;;;0.20;0.20;;;17.30;99.90;;;;;;5053511;28;20424;-83
2022/07/17 08:27:19;;;;;;;0.20;0.20;;;17.30;99.90;;;;;;5061205;28;20076;-82
2022/07/17 08:29:44;;;;;;;0.20;0.20;;;17.30;99.90;;;;;;5053322;28;20048;-82
2022/07/17 08:32:10;;;;;;;0.20;0.20;;;17.40;99.90;;;;;;5062590;28;20056;-82
2022/07/17 08:34:35;;;;;;;0.20;0.20;;;17.60;99.90;;;;;;5066641;28;20028;-81
2022/07/17 08:37:01;;;;;;;0.20;0.20;;;17.40;99.90;;;;;;5069951;28;20517;-82
2022/07/17 08:39:27;;;;;;;0.20;0.20;;;17.40;99.90;;;;;;5081287;28;20147;-82
2022/07/17 08:41:52;;;;;;;0.20;0.20;;;17.50;99.90;;;;;;5091167;28;20071;-82
2022/07/17 08:44:18;;;;;;;0.20;0.20;;;17.50;99.90;;;;;;5070752;28;20036;-82
2022/07/17 08:46:47;;;;;;;0.20;0.20;;;17.50;99.90;;;;;;5052925;28;20119;-82
2022/07/17 08:49:15;;;;;;;0.20;0.20;;;17.50;99.90;;;;;;5066748;28;20048;-82
2022/07/17 08:51:40;;;;;;;0.20;0.20;;;17.60;99.90;;;;;;5076835;28;20101;-82
2022/07/17 08:54:06;;;;;;;0.20;0.20;;;17.60;99.90;;;;;;5062202;28;20041;-81
2022/07/17 08:56:31;;;;;;;0.20;0.20;;;17.90;99.90;;;;;;5064711;28;20063;-81
2022/07/17 08:58:57;;;;;;;0.20;0.20;;;17.70;99.90;;;;;;5064916;28;20041;-81
2022/07/17 09:01:23;;;;;;;0.20;0.20;;;17.70;99.90;;;;;;5059845;28;21120;-81
2022/07/17 09:04:16;;;;;;;0.20;0.20;;;17.80;99.90;;;;;;5062984;28;20064;-82
2022/07/17 09:06:42;;;;;;;0.10;0.10;;;17.80;99.90;;;;;;5067515;28;20538;-83
2022/07/17 09:09:10;;;;;;;0.20;0.20;;;17.90;99.90;;;;;;5055959;28;20084;-83
2022/07/17 09:11:50;;;;;;;0.20;0.20;;;17.90;99.90;;;;;;5052272;28;20044;-82
2022/07/17 09:14:17;;;;;;;0.20;0.20;;;17.90;99.90;;;;;;5053933;28;20362;-82
2022/07/17 09:16:57;;;;;;;0.20;0.20;;;18.00;99.90;;;;;;5059973;28;20040;-82
2022/07/17 09:19:28;;;;;;;0.20;0.20;;;18.00;99.90;;;;;;5062370;28;20076;-83
2022/07/17 09:22:23;;;;;;;0.30;0.30;;;18.10;99.90;;;;;;5070478;28;20099;-83
2022/07/17 09:24:58;;;;;;;0.15;0.15;;;18.10;99.90;;;;;;5066480;28;20049;-82
2022/07/17 09:27:23;;;;;;;0.20;0.20;;;18.20;99.90;;;;;;5049076;28;20047;-83
2022/07/17 09:30:06;;;;;;;0.20;0.20;;;18.20;99.90;;;;;;5050731;28;20124;-82
2022/07/17 09:32:39;;;;;;;0.20;0.20;;;18.30;99.90;;;;;;5056509;28;20448;-82
2022/07/17 09:35:08;;;;;;;0.20;0.20;;;18.30;99.90;;;;;;5076611;28;20036;-82
2022/07/17 09:37:35;;;;;;;0.20;0.20;;;18.40;99.90;;;;;;5087398;28;20529;-82
2022/07/17 09:40:02;;;;;;;0.20;0.20;;;18.40;99.90;;;;;;5075075;28;20124;-82
2022/07/17 09:42:31;;;;;;;0.20;0.20;;;18.50;99.90;;;;;;5079329;28;20049;-82
2022/07/17 09:45:15;;;;;;;0.20;0.20;;;18.50;99.90;;;;;;5071971;28;20400;-81
2022/07/17 09:47:40;;;;;;;0.20;0.20;;;18.60;99.90;;;;;;5065878;28;20054;-82
2022/07/17 09:50:07;;;;;;;0.20;0.20;;;18.60;99.90;;;;;;5065720;28;20492;-82
2022/07/17 09:52:37;;;;;;;0.20;0.20;;;18.70;99.90;;;;;;5053113;28;20048;-81
2022/07/17 09:55:03;;;;;;;0.20;0.20;;;18.70;99.90;;;;;;5062116;28;20056;-82
2022/07/17 09:57:31;;;;;;;0.20;0.20;;;18.80;99.90;;;;;;5055763;28;20215;-81
2022/07/17 10:00:15;;;;;;;0.20;0.20;;;18.80;99.90;;;;;;5073513;28;20233;-83
2022/07/17 10:02:42;;;;;;;0.30;0.30;;;18.90;99.90;;;;;;5071778;28;20037;-82
2022/07/17 10:05:15;;;;;;;0.20;0.20;;;18.80;99.90;;;;;;5069282;28;20040;-82
2022/07/17 10:07:42;;;;;;;0.20;0.20;;;18.90;99.90;;;;;;5076300;28;20729;-82
2022/07/17 10:10:09;;;;;;;0.28;0.28;;;19.00;99.90;;;;;;5072725;28;20045;-83
2022/07/17 10:12:38;;;;;;;0.20;0.20;;;19.00;99.90;;;;;;5060988;28;20076;-82
2022/07/17 10:15:05;;;;;;;0.15;0.15;;;19.10;99.90;;;;;;5059861;28;20396;-83
2022/07/17 10:17:31;;;;;;;0.20;0.20;;;19.10;99.90;;;;;;5051177;28;20059;-83
2022/07/17 10:19:57;;;;;;;0.20;0.20;;;19.20;99.90;;;;;;5048324;28;20053;-84
2022/07/17 10:22:24;;;;;;;0.20;0.20;;;19.20;99.90;;;;;;5064610;28;20064;-85
2022/07/17 10:24:52;;;;;;;0.20;0.20;;;19.30;99.90;;;;;;5062121;28;20032;-86
2022/07/17 10:27:28;;;;;;;0.20;0.20;;;19.30;99.90;;;;;;5055166;28;20054;-85
2022/07/17 10:30:01;;;;;;;0.20;0.20;;;19.40;99.90;;;;;;5060014;28;20068;-85
2022/07/17 10:32:27;;;;;;;0.20;0.20;;;19.50;99.90;;;;;;5062775;28;20049;-84
2022/07/17 10:34:58;;;;;;;0.20;0.20;;;19.50;99.90;;;;;;5076116;28;20484;-83
2022/07/17 10:37:41;;;;;;;0.20;0.20;;;19.50;99.90;;;;;;5065675;28;20152;-85
2022/07/17 10:40:14;;;;;;;0.20;0.20;;;19.60;99.90;;;;;;5064170;28;20041;-85
2022/07/17 10:42:59;;;;;;;0.20;0.20;;;19.70;99.90;;;;;;5065310;28;20133;-85
2022/07/17 10:45:45;;;;;;;0.20;0.20;;;19.80;99.90;;;;;;5055897;28;20040;-85
2022/07/17 10:48:12;;;;;;;0.20;0.20;;;19.80;99.90;;;;;;5058528;28;20062;-86
2022/07/17 10:50:49;;;;;;;0.20;0.20;;;19.90;99.90;;;;;;5065818;28;20163;-86
2022/07/17 10:53:17;;;;;;;0.20;0.20;;;19.90;99.90;;;;;;5065748;28;20040;-91
2022/07/17 10:55:48;;;;;;;0.20;0.20;;;20.00;99.90;;;;;;5057667;28;20060;-81
2022/07/17 10:58:37;;;;;;;0.20;0.20;;;20.10;99.90;;;;;;5068919;28;20535;-81
2022/07/17 11:01:10;;;;;;;0.20;0.20;;;20.10;99.90;;;;;;5069874;28;20032;-80
2022/07/17 11:03:43;;;;;;;0.20;0.20;;;20.20;99.90;;;;;;5066678;28;20104;-81
2022/07/17 11:06:19;;;;;;;0.20;0.20;;;20.30;99.90;;;;;;5060569;28;20037;-81
2022/07/17 11:08:48;;;;;;;0.20;0.20;;;20.30;99.90;;;;;;5074766;28;20087;-81
2022/07/17 11:11:16;;;;;;;0.20;0.20;;;20.40;99.90;;;;;;5062202;28;20047;-80
2022/07/17 11:13:41;;;;;;;0.20;0.20;;;20.40;99.90;;;;;;5064125;28;20112;-81
2022/07/17 11:16:08;;;;;;;0.20;0.20;;;20.40;99.80;;;;;;5066207;28;20105;-81
2022/07/17 11:18:34;;;;;;;0.20;0.20;;;20.50;99.90;;;;;;5064343;28;20087;-82
2022/07/17 11:21:01;;;;;;;0.20;0.20;;;20.50;99.90;;;;;;5070778;28;20132;-80
2022/07/17 11:23:32;;;;;;;0.20;0.20;;;20.70;99.90;;;;;;5071406;28;20428;-79
2022/07/17 11:26:06;;;;;;;0.20;0.20;;;20.70;99.00;;;;;;5067860;28;20580;-80
2022/07/17 11:28:38;;;;;;;0.20;0.20;;;20.70;99.10;;;;;;5086343;28;20048;-81
2022/07/17 11:31:30;;;;;;;0.20;0.20;;;20.80;99.30;;;;;;5075754;28;20048;-80
2022/07/17 11:34:02;;;;;;;0.20;0.20;;;20.90;99.30;;;;;;5071413;28;20048;-81
2022/07/17 11:36:34;;;;;;;0.30;0.30;;;21.00;99.80;;;;;;5078189;28;20076;-80
2022/07/17 11:39:18;;;;;;;0.20;0.20;;;21.10;99.20;;;;;;5059914;28;20280;-80
2022/07/17 11:41:52;;;;;;;0.20;0.20;;;21.20;99.10;;;;;;5067520;28;20053;-78
2022/07/17 11:44:21;;;;;;;0.20;0.20;;;21.30;98.70;;;;;;5052167;28;20124;-78
2022/07/17 11:46:49;;;;;;;0.20;0.20;;;21.40;97.70;;;;;;5064896;28;20040;-79
2022/07/17 11:49:47;;;;;;;0.20;0.20;;;21.30;97.00;;;;;;5069744;28;20076;-79
2022/07/17 11:52:17;;;;;;;0.20;0.20;;;21.30;98.20;;;;;;5027749;28;20061;-80
2022/07/17 11:54:45;;;;;;;0.20;0.20;;;21.50;98.50;;;;;;5050822;28;20352;-79
2022/07/17 11:57:11;;;;;;;0.20;0.20;;;21.60;98.80;;;;;;5051787;28;20514;-80
2022/07/17 11:59:37;;;;;;;0.20;0.20;;;21.70;99.00;;;;;;5050344;28;20087;-79
2022/07/17 12:02:08;;;;;;;0.20;0.20;;;21.80;99.20;;;;;;5051162;28;20072;-81
2022/07/17 12:04:33;;;;;;;0.25;0.25;;;21.90;99.00;;;;;;5051841;28;20037;-79
2022/07/17 12:07:01;;;;;;;0.20;0.20;;;22.00;98.50;;;;;;5050067;28;20850;-80
2022/07/17 12:09:35;;;;;;;0.20;0.20;;;22.10;98.10;;;;;;5050803;28;20527;-80
2022/07/17 12:12:02;;;;;;;0.20;0.20;;;22.10;97.90;;;;;;5051595;28;20047;-80
2022/07/17 12:14:28;;;;;;;0.20;0.20;;;22.20;98.20;;;;;;5049573;28;20053;-79
2022/07/17 12:16:57;;;;;;;0.22;0.22;;;22.30;97.30;;;;;;5051024;28;20119;-80
2022/07/17 12:19:24;;;;;;;0.20;0.20;;;22.30;97.50;;;;;;5066339;28;20052;-80
2022/07/17 12:22:00;;;;;;;0.20;0.20;;;22.40;97.60;;;;;;5051411;28;20041;-80
2022/07/17 12:24:29;;;;;;;0.20;0.20;;;22.50;97.70;;;;;;5051733;28;20049;-80
2022/07/17 12:27:00;;;;;;;0.20;0.20;;;22.50;97.60;;;;;;5050547;28;20056;-80
2022/07/17 12:29:26;;;;;;;;;;;22.60;97.60;;;;;;5052421;28;20393;-79
2022/07/17 12:32:12;;;;;;;0.20;0.20;;;22.70;97.70;;;;;;5051321;28;19928;-80
2022/07/17 12:34:46;;;;;;;0.20;0.20;;;22.80;97.50;;;;;;5049495;28;20048;-80
2022/07/17 12:37:17;;;;;;;0.20;0.20;;;22.80;97.30;;;;;;5066442;28;20049;-80
2022/07/17 12:39:43;;;;;;;;;;;22.90;97.40;;;;;;5069627;28;20094;-80
2022/07/17 12:42:09;;;;;;;0.20;0.20;;;23.00;97.20;;;;;;5069431;28;19924;-80
2022/07/17 12:44:35;;;;;;;0.20;0.20;;;23.10;97.10;;;;;;5071584;28;20561;-79
2022/07/17 12:47:01;;;;;;;0.20;0.20;;;23.20;95.90;;;;;;5067092;28;20456;-79
2022/07/17 12:49:27;;;;;;;0.20;0.20;;;23.20;96.10;;;;;;5070903;28;20055;-79
2022/07/17 12:51:53;;;;;;;0.30;0.30;;;23.20;96.40;;;;;;5070839;28;20124;-80
2022/07/17 12:54:18;;;;;;;0.20;0.20;;;23.30;96.60;;;;;;5069517;28;20044;-80